createdAt,value
2023-08-13T00:01:12.700Z,5.30
2023-08-13T00:03:40.754Z,6.10
2023-08-13T00:06:08.638Z,6.20
2023-08-13T00:08:36.393Z,4.70
2023-08-13T00:11:12.766Z,5.90
2023-08-13T00:13:41.666Z,6.10
2023-08-13T00:16:10.284Z,5.10
2023-08-13T00:18:38.325Z,5.90
2023-08-13T00:21:06.392Z,5.80
2023-08-13T00:23:34.161Z,3.70
2023-08-13T00:26:01.949Z,4.30
2023-08-13T00:28:29.806Z,5.50
2023-08-13T00:30:57.573Z,6.30
2023-08-13T00:33:25.481Z,5.30
2023-08-13T00:35:53.291Z,6.20
2023-08-13T00:38:21.012Z,6.30
2023-08-13T00:40:48.925Z,4.90
2023-08-13T00:43:16.628Z,7.30
2023-08-13T00:45:45.006Z,4.70
2023-08-13T00:48:13.577Z,4.30
2023-08-13T00:50:42.071Z,4.90
2023-08-13T00:53:11.537Z,4.60
2023-08-13T00:55:39.734Z,4.80
2023-08-13T00:58:07.525Z,5.20
2023-08-13T01:00:35.263Z,4.90
2023-08-13T01:03:02.973Z,4.50
2023-08-13T01:05:54.415Z,5.50
2023-08-13T01:08:41.718Z,4.80
2023-08-13T01:11:48.213Z,6.90
2023-08-13T01:14:26.222Z,7.00
2023-08-13T01:16:57.669Z,5.90
2023-08-13T01:19:25.732Z,6.20
2023-08-13T01:21:53.562Z,6.00
2023-08-13T01:24:21.624Z,6.40
2023-08-13T01:27:02.699Z,4.90
2023-08-13T01:29:41.732Z,5.90
2023-08-13T01:32:13.481Z,6.70
2023-08-13T01:34:43.000Z,5.40
2023-08-13T01:37:11.957Z,6.30
2023-08-13T01:39:40.485Z,6.40
2023-08-13T01:42:11.270Z,6.00
2023-08-13T01:44:38.997Z,7.20
2023-08-13T01:47:07.120Z,6.00
2023-08-13T01:49:35.490Z,5.50
2023-08-13T01:52:03.315Z,5.30
2023-08-13T01:54:31.057Z,5.00
2023-08-13T01:57:00.220Z,5.80
2023-08-13T01:59:28.009Z,6.10
2023-08-13T02:01:55.665Z,7.30
2023-08-13T02:04:23.580Z,5.10
2023-08-13T02:06:52.517Z,8.40
2023-08-13T02:09:20.267Z,7.80
2023-08-13T02:11:48.064Z,6.20
2023-08-13T02:14:15.853Z,6.70
2023-08-13T02:16:43.742Z,6.30
2023-08-13T02:19:11.979Z,7.60
2023-08-13T02:21:39.855Z,6.40
2023-08-13T02:24:07.853Z,6.40
2023-08-13T02:26:35.541Z,6.50
2023-08-13T02:29:03.311Z,5.40
2023-08-13T02:31:31.049Z,4.70
2023-08-13T02:33:58.753Z,6.50
2023-08-13T02:36:26.557Z,5.20
2023-08-13T02:38:54.265Z,7.90
2023-08-13T02:41:21.925Z,7.00
2023-08-13T02:43:54.726Z,6.40
2023-08-13T02:46:24.275Z,7.90
2023-08-13T02:48:57.069Z,11.00
2023-08-13T02:51:25.506Z,5.90
2023-08-13T02:53:53.802Z,7.70
2023-08-13T02:56:21.917Z,8.60
2023-08-13T02:58:49.730Z,6.70
2023-08-13T03:01:17.640Z,6.20
2023-08-13T03:03:52.883Z,9.40
2023-08-13T03:06:26.257Z,7.70
2023-08-13T03:08:54.278Z,6.00
2023-08-13T03:11:22.277Z,5.90
2023-08-13T03:13:50.487Z,7.60
2023-08-13T03:16:18.401Z,9.10
2023-08-13T03:18:46.660Z,8.00
2023-08-13T03:21:17.022Z,7.10
2023-08-13T03:23:44.774Z,8.00
2023-08-13T03:26:12.642Z,7.80
2023-08-13T03:28:40.914Z,8.70
2023-08-13T03:31:14.029Z,8.00
2023-08-13T03:33:48.098Z,7.90
2023-08-13T03:36:15.828Z,6.50
2023-08-13T03:38:43.589Z,5.60
2023-08-13T03:41:11.341Z,6.50
2023-08-13T03:43:39.172Z,7.70
2023-08-13T03:46:07.001Z,7.60
2023-08-13T03:48:34.882Z,6.70
2023-08-13T03:51:04.950Z,5.90
2023-08-13T03:53:33.705Z,9.10
2023-08-13T03:56:01.686Z,7.90
2023-08-13T03:58:31.492Z,7.90
2023-08-13T04:01:05.409Z,6.60
2023-08-13T04:03:33.711Z,9.00
2023-08-13T04:06:02.255Z,8.60
2023-08-13T04:08:30.541Z,6.20
2023-08-13T04:10:58.196Z,8.20
2023-08-13T04:13:25.822Z,7.00
2023-08-13T04:15:54.005Z,8.40
2023-08-13T04:18:22.192Z,8.30
2023-08-13T04:20:50.150Z,7.80
2023-08-13T04:23:18.974Z,7.30
2023-08-13T04:25:46.769Z,8.70
2023-08-13T04:28:15.000Z,5.90
2023-08-13T04:30:44.832Z,7.40
2023-08-13T04:33:12.557Z,8.80
2023-08-13T04:35:40.564Z,6.80
2023-08-13T04:38:08.509Z,6.20
2023-08-13T04:40:40.068Z,8.30
2023-08-13T04:43:08.351Z,6.10
2023-08-13T04:45:36.296Z,7.30
2023-08-13T04:48:04.418Z,7.20
2023-08-13T04:50:34.428Z,7.70
2023-08-13T04:53:02.172Z,6.80
2023-08-13T04:55:30.088Z,6.30
2023-08-13T04:57:57.939Z,8.30
2023-08-13T05:00:26.071Z,6.70
2023-08-13T05:02:53.934Z,7.90
2023-08-13T05:05:22.003Z,9.30
2023-08-13T05:07:50.689Z,5.80
2023-08-13T05:10:18.916Z,7.70
2023-08-13T05:12:47.213Z,7.90
2023-08-13T05:15:15.867Z,6.10
2023-08-13T05:17:43.543Z,5.90
2023-08-13T05:20:11.498Z,7.00
2023-08-13T05:22:39.355Z,7.00
2023-08-13T05:25:07.668Z,5.70
2023-08-13T05:27:35.824Z,6.60
2023-08-13T05:30:03.946Z,5.40
2023-08-13T05:32:31.930Z,6.10
2023-08-13T05:34:59.876Z,7.30
2023-08-13T05:37:28.102Z,6.60
2023-08-13T05:39:55.967Z,6.50
2023-08-13T05:42:23.686Z,6.10
2023-08-13T05:44:52.345Z,7.40
2023-08-13T05:47:20.134Z,6.70
2023-08-13T05:49:47.958Z,5.60
2023-08-13T05:52:17.041Z,6.70
2023-08-13T05:54:44.861Z,6.50
2023-08-13T05:57:13.234Z,8.00
2023-08-13T05:59:41.421Z,6.40
2023-08-13T06:02:09.556Z,6.10
2023-08-13T06:04:37.392Z,5.60
2023-08-13T06:07:05.440Z,7.20
2023-08-13T06:09:33.337Z,5.80
2023-08-13T06:12:01.866Z,6.00
2023-08-13T06:14:29.588Z,6.80
2023-08-13T06:17:08.526Z,5.40
2023-08-13T06:19:40.430Z,5.10
2023-08-13T06:22:08.308Z,5.60
2023-08-13T06:24:36.163Z,6.30
2023-08-13T06:27:04.197Z,5.10
2023-08-13T06:29:31.972Z,5.30
2023-08-13T06:31:59.714Z,6.60
2023-08-13T06:34:27.625Z,5.50
2023-08-13T06:36:55.570Z,4.90
2023-08-13T06:39:23.407Z,4.90
2023-08-13T06:41:51.285Z,4.80
2023-08-13T06:44:21.402Z,5.40
2023-08-13T06:46:49.837Z,6.30
2023-08-13T06:49:17.883Z,7.40
2023-08-13T06:51:45.832Z,6.70
2023-08-13T06:54:13.490Z,4.00
2023-08-13T06:56:41.207Z,5.10
2023-08-13T06:59:08.917Z,5.00
2023-08-13T07:01:36.903Z,5.40
2023-08-13T07:04:07.347Z,4.60
2023-08-13T07:06:35.846Z,4.50
2023-08-13T07:09:04.873Z,4.70
2023-08-13T07:14:05.724Z,3.90
2023-08-13T07:16:33.612Z,5.30
2023-08-13T07:19:02.227Z,5.40
2023-08-13T07:21:29.974Z,5.50
2023-08-13T07:23:58.544Z,4.90
2023-08-13T07:26:26.312Z,4.00
2023-08-13T07:28:54.151Z,5.30
2023-08-13T07:31:22.105Z,6.00
2023-08-13T07:33:50.861Z,4.10
2023-08-13T07:36:18.648Z,5.00
2023-08-13T07:38:46.349Z,6.00
2023-08-13T07:41:14.510Z,5.60
2023-08-13T07:43:42.321Z,5.70
2023-08-13T07:46:10.186Z,5.50
2023-08-13T07:48:37.992Z,5.00
2023-08-13T07:51:05.739Z,5.20
2023-08-13T07:53:33.578Z,5.40
2023-08-13T07:56:01.535Z,5.60
2023-08-13T07:58:29.532Z,5.80
2023-08-13T08:00:57.588Z,5.60
2023-08-13T08:03:25.658Z,5.20
2023-08-13T08:05:54.143Z,4.50
2023-08-13T08:08:22.111Z,6.10
2023-08-13T08:10:49.883Z,7.00
2023-08-13T08:13:17.598Z,4.50
2023-08-13T08:15:45.332Z,5.30
2023-08-13T08:18:13.176Z,4.60
2023-08-13T08:20:41.086Z,5.30
2023-08-13T08:23:08.912Z,4.90
2023-08-13T08:25:36.772Z,5.50
2023-08-13T08:28:04.966Z,4.70
2023-08-13T08:30:32.809Z,5.30
2023-08-13T08:33:00.607Z,5.00
2023-08-13T08:35:28.496Z,6.70
2023-08-13T08:37:56.325Z,5.40
2023-08-13T08:40:24.163Z,4.50
2023-08-13T08:42:52.294Z,5.70
2023-08-13T08:45:21.008Z,6.80
2023-08-13T08:47:51.136Z,6.70
2023-08-13T08:50:19.058Z,4.90
2023-08-13T08:52:49.099Z,5.20
2023-08-13T08:55:17.660Z,4.50
2023-08-13T08:57:45.361Z,6.40
2023-08-13T09:00:13.584Z,6.60
2023-08-13T09:02:42.992Z,6.00
2023-08-13T09:05:10.993Z,4.90
2023-08-13T09:07:44.183Z,4.70
2023-08-13T09:10:12.725Z,4.80
2023-08-13T09:12:42.940Z,5.50
2023-08-13T09:15:12.540Z,6.20
2023-08-13T09:17:40.922Z,4.80
2023-08-13T09:20:20.580Z,4.10
2023-08-13T09:22:49.247Z,7.20
2023-08-13T09:27:46.116Z,4.10
2023-08-13T09:30:21.448Z,4.00
2023-08-13T09:32:49.535Z,5.50
2023-08-13T09:35:17.319Z,4.30
2023-08-13T09:37:45.170Z,4.40
2023-08-13T09:40:13.168Z,3.60
2023-08-13T09:42:44.242Z,4.20
2023-08-13T09:45:12.712Z,4.50
2023-08-13T09:47:45.071Z,4.80
2023-08-13T09:50:18.876Z,4.80
2023-08-13T09:52:47.909Z,7.30
2023-08-13T09:55:21.417Z,4.70
2023-08-13T09:57:51.903Z,3.90
2023-08-13T10:00:19.976Z,5.30
2023-08-13T10:02:48.695Z,4.10
2023-08-13T10:05:16.965Z,3.50
2023-08-13T10:07:45.972Z,3.50
2023-08-13T10:10:14.011Z,3.10
2023-08-13T10:12:42.575Z,3.40
2023-08-13T10:15:10.740Z,4.40
2023-08-13T10:17:38.521Z,3.40
2023-08-13T10:20:07.120Z,4.70
2023-08-13T10:22:37.204Z,3.70
2023-08-13T10:25:09.241Z,3.50
2023-08-13T10:27:44.511Z,4.10
2023-08-13T10:30:14.688Z,3.20
2023-08-13T10:32:54.833Z,3.70
2023-08-13T10:35:23.864Z,3.80
2023-08-13T10:37:59.028Z,5.40
2023-08-13T10:40:28.269Z,3.90
2023-08-13T10:42:58.587Z,3.10
2023-08-13T10:45:35.471Z,5.60
2023-08-13T10:48:05.362Z,5.30
2023-08-13T10:50:40.226Z,3.50
2023-08-13T10:53:21.272Z,3.30
2023-08-13T10:55:51.534Z,4.00
2023-08-13T10:58:27.844Z,3.40
2023-08-13T11:01:11.988Z,3.30
2023-08-13T11:03:53.764Z,3.30
2023-08-13T11:06:23.485Z,3.40
2023-08-13T11:08:51.782Z,2.90
2023-08-13T11:11:20.935Z,4.30
2023-08-13T11:13:50.394Z,2.60
2023-08-13T11:16:18.579Z,2.60
2023-08-13T11:18:46.508Z,2.10
2023-08-13T11:21:15.213Z,3.50
2023-08-13T11:23:42.961Z,5.60
2023-08-13T11:26:10.808Z,3.30
2023-08-13T11:28:38.604Z,3.40
2023-08-13T11:31:06.330Z,3.70
2023-08-13T11:33:34.140Z,3.20
2023-08-13T11:36:02.136Z,3.60
2023-08-13T11:38:30.024Z,2.50
2023-08-13T11:40:57.828Z,2.90
2023-08-13T11:43:29.772Z,2.70
2023-08-13T11:45:57.529Z,2.90
2023-08-13T11:48:25.425Z,3.70
2023-08-13T11:51:23.443Z,4.00
2023-08-13T11:53:51.511Z,2.70
2023-08-13T11:56:20.492Z,4.90
2023-08-13T11:58:50.004Z,3.70
2023-08-13T12:01:17.835Z,4.30
2023-08-13T12:03:46.233Z,2.80
2023-08-13T12:06:14.697Z,4.50
2023-08-13T12:08:46.754Z,3.00
2023-08-13T12:11:14.709Z,3.20
2023-08-13T12:13:43.184Z,2.70
2023-08-13T12:18:39.415Z,4.10
2023-08-13T12:21:07.139Z,2.70
2023-08-13T12:23:34.933Z,3.00
2023-08-13T12:26:03.581Z,3.50
2023-08-13T12:28:31.654Z,3.30
2023-08-13T12:30:59.550Z,2.50
2023-08-13T12:33:27.546Z,3.10
2023-08-13T12:35:55.374Z,6.20
2023-08-13T12:38:23.199Z,3.30
2023-08-13T12:40:50.992Z,3.40
2023-08-13T12:43:18.658Z,4.50
2023-08-13T12:45:46.652Z,4.40
2023-08-13T12:48:14.568Z,3.80
2023-08-13T12:50:42.380Z,4.30
2023-08-13T12:53:10.057Z,4.40
2023-08-13T12:55:37.847Z,3.90
2023-08-13T12:58:05.757Z,3.80
2023-08-13T13:00:33.573Z,3.60
2023-08-13T13:03:01.431Z,5.20
2023-08-13T13:05:29.261Z,3.40
2023-08-13T13:07:57.069Z,4.50
2023-08-13T13:10:25.420Z,4.50
2023-08-13T13:12:53.371Z,3.00
2023-08-13T13:15:21.741Z,3.40
2023-08-13T13:17:49.622Z,3.10
2023-08-13T13:20:19.285Z,4.20
2023-08-13T13:22:47.019Z,3.30
2023-08-13T13:25:14.905Z,9.70
2023-08-13T13:27:43.209Z,3.60
2023-08-13T13:30:12.693Z,4.80
2023-08-13T13:32:41.766Z,3.10
2023-08-13T13:35:10.171Z,3.30
2023-08-13T13:37:37.885Z,3.30
2023-08-13T13:40:06.890Z,3.50
2023-08-13T13:42:34.944Z,3.80
2023-08-13T13:45:03.290Z,3.40
2023-08-13T13:47:31.109Z,3.30
2023-08-13T13:49:58.915Z,4.00
2023-08-13T13:52:26.641Z,3.50
2023-08-13T13:54:55.412Z,3.20
2023-08-13T13:57:25.145Z,3.40
2023-08-13T13:59:52.822Z,4.10
2023-08-13T14:02:20.753Z,4.90
2023-08-13T14:04:48.616Z,3.90
2023-08-13T14:07:16.694Z,4.40
2023-08-13T14:09:44.566Z,6.90
2023-08-13T14:12:12.301Z,3.60
2023-08-13T14:14:40.267Z,6.40
2023-08-13T14:17:08.203Z,4.20
2023-08-13T14:19:35.981Z,4.10
2023-08-13T14:22:03.664Z,5.30
2023-08-13T14:24:31.413Z,5.90
2023-08-13T14:27:00.297Z,3.40
2023-08-13T14:29:28.053Z,4.40
2023-08-13T14:31:55.827Z,3.40
2023-08-13T14:34:23.710Z,4.10
2023-08-13T14:36:51.533Z,4.10
2023-08-13T14:39:19.900Z,3.70
2023-08-13T14:41:47.677Z,4.50
2023-08-13T14:44:16.512Z,4.10
2023-08-13T14:49:13.561Z,6.20
2023-08-13T14:51:43.980Z,3.90
2023-08-13T14:54:13.469Z,4.80
2023-08-13T14:56:41.226Z,3.70
2023-08-13T14:59:09.056Z,4.50
2023-08-13T15:01:38.727Z,4.00
2023-08-13T15:04:07.241Z,3.20
2023-08-13T15:06:35.117Z,5.20
2023-08-13T15:09:02.891Z,4.30
2023-08-13T15:11:30.803Z,2.80
2023-08-13T15:13:58.627Z,2.80
2023-08-13T15:16:26.437Z,3.90
2023-08-13T15:18:54.325Z,3.10
2023-08-13T15:21:22.038Z,3.30
2023-08-13T15:23:49.828Z,2.70
2023-08-13T15:26:17.571Z,3.20
2023-08-13T15:28:45.587Z,3.40
2023-08-13T15:31:13.326Z,3.00
2023-08-13T15:33:41.369Z,2.60
2023-08-13T15:36:09.400Z,2.70
2023-08-13T15:38:37.128Z,2.90
2023-08-13T15:41:05.952Z,3.80
2023-08-13T15:46:01.396Z,2.70
2023-08-13T15:48:29.399Z,3.70
2023-08-13T15:50:57.305Z,3.10
2023-08-13T15:53:25.154Z,4.10
2023-08-13T15:55:52.911Z,4.90
2023-08-13T15:58:20.784Z,3.30
2023-08-13T16:00:48.541Z,3.70
2023-08-13T16:03:16.378Z,3.00
2023-08-13T16:05:44.445Z,3.70
2023-08-13T16:08:12.366Z,3.60
2023-08-13T16:10:41.157Z,2.50
2023-08-13T16:13:09.251Z,2.80
2023-08-13T16:15:37.019Z,3.00
2023-08-13T16:18:05.161Z,3.30
2023-08-13T16:20:33.040Z,2.60
2023-08-13T16:23:00.904Z,3.30
2023-08-13T16:25:28.837Z,4.50
2023-08-13T16:27:58.517Z,2.70
2023-08-13T16:30:26.430Z,3.00
2023-08-13T16:32:54.394Z,3.30
2023-08-13T16:35:22.178Z,3.70
2023-08-13T16:37:50.154Z,5.60
2023-08-13T16:40:18.248Z,3.50
2023-08-13T16:43:00.148Z,4.80
2023-08-13T16:45:33.403Z,3.20
2023-08-13T16:48:01.615Z,4.90
2023-08-13T16:50:29.538Z,2.90
2023-08-13T16:52:57.400Z,4.50
2023-08-13T16:55:26.576Z,3.50
2023-08-13T16:57:54.419Z,4.00
2023-08-13T17:00:22.150Z,6.90
2023-08-13T17:02:50.256Z,3.10
2023-08-13T17:05:18.275Z,3.70
2023-08-13T17:07:46.123Z,4.00
2023-08-13T17:10:15.167Z,3.10
2023-08-13T17:12:43.756Z,4.60
2023-08-13T17:15:24.288Z,3.70
2023-08-13T17:17:55.549Z,4.20
2023-08-13T17:20:24.698Z,2.80
2023-08-13T17:22:52.596Z,4.10
2023-08-13T17:25:20.486Z,3.90
2023-08-13T17:27:48.486Z,3.60
2023-08-13T17:30:16.728Z,3.20
2023-08-13T17:32:44.883Z,3.70
2023-08-13T17:35:12.849Z,4.00
2023-08-13T17:37:41.353Z,4.00
2023-08-13T17:40:09.884Z,5.30
2023-08-13T17:42:37.794Z,3.10
2023-08-13T17:45:06.074Z,2.70
2023-08-13T17:47:34.368Z,2.80
2023-08-13T17:50:02.557Z,10.10
2023-08-13T17:52:30.322Z,13.30
2023-08-13T17:54:58.121Z,5.90
2023-08-13T17:57:26.033Z,8.70
2023-08-13T17:59:54.219Z,5.20
2023-08-13T18:02:40.273Z,3.40
2023-08-13T18:05:08.692Z,4.90
2023-08-13T18:07:38.107Z,4.10
2023-08-13T18:10:06.203Z,5.50
2023-08-13T18:12:34.637Z,4.10
2023-08-13T18:15:02.570Z,6.30
2023-08-13T18:17:30.395Z,4.50
2023-08-13T18:19:59.154Z,4.40
2023-08-13T18:22:27.301Z,5.10
2023-08-13T18:24:56.416Z,5.40
2023-08-13T18:27:24.254Z,4.90
2023-08-13T18:29:52.536Z,9.30
2023-08-13T18:32:20.268Z,5.50
2023-08-13T18:34:48.044Z,5.60
2023-08-13T18:37:16.346Z,4.80
2023-08-13T18:42:15.533Z,7.60
2023-08-13T18:44:44.391Z,4.60
2023-08-13T18:47:12.173Z,6.20
2023-08-13T18:49:40.083Z,6.20
2023-08-13T18:52:08.288Z,4.80
2023-08-13T18:54:36.061Z,5.50
2023-08-13T18:57:04.021Z,5.50
2023-08-13T18:59:31.761Z,7.50
2023-08-13T19:01:59.498Z,5.90
2023-08-13T19:04:27.317Z,4.10
2023-08-13T19:06:55.144Z,3.90
2023-08-13T19:09:22.878Z,4.60
2023-08-13T19:11:51.110Z,4.30
2023-08-13T19:14:18.934Z,4.70
2023-08-13T19:16:47.253Z,3.80
2023-08-13T19:19:15.563Z,6.30
2023-08-13T19:21:43.390Z,5.20
2023-08-13T19:24:11.267Z,5.80
2023-08-13T19:26:39.069Z,3.90
2023-08-13T19:29:06.851Z,6.70
2023-08-13T19:31:34.655Z,9.20
2023-08-13T19:34:02.507Z,9.00
2023-08-13T19:36:30.287Z,10.40
2023-08-13T19:38:59.546Z,6.30
2023-08-13T19:41:28.307Z,6.30
2023-08-13T19:43:56.220Z,6.80
2023-08-13T19:46:24.150Z,6.00
2023-08-13T19:48:51.935Z,6.10
2023-08-13T19:51:19.762Z,4.60
2023-08-13T19:53:47.637Z,4.50
2023-08-13T19:56:15.426Z,6.70
2023-08-13T19:58:43.182Z,5.20
2023-08-13T20:01:11.048Z,6.50
2023-08-13T20:03:38.901Z,5.20
2023-08-13T20:06:06.787Z,5.20
2023-08-13T20:08:36.898Z,5.60
2023-08-13T20:11:04.726Z,4.80
2023-08-13T20:13:32.536Z,7.50
2023-08-13T20:16:07.088Z,5.10
2023-08-13T20:18:35.170Z,6.00
2023-08-13T20:21:03.199Z,4.40
2023-08-13T20:23:31.086Z,5.40
2023-08-13T20:25:58.931Z,5.30
2023-08-13T20:28:26.781Z,7.30
2023-08-13T20:30:54.835Z,6.60
2023-08-13T20:33:22.597Z,6.80
2023-08-13T20:35:50.339Z,5.40
2023-08-13T20:38:18.081Z,6.30
2023-08-13T20:40:45.796Z,4.90
2023-08-13T20:43:13.683Z,5.00
2023-08-13T20:45:42.285Z,5.40
2023-08-13T20:48:10.584Z,5.20
2023-08-13T20:50:38.438Z,5.60
2023-08-13T20:53:07.015Z,6.40
2023-08-13T20:55:36.623Z,5.90
2023-08-13T20:58:04.728Z,5.80
2023-08-13T21:00:32.455Z,8.90
2023-08-13T21:03:00.335Z,8.20
2023-08-13T21:05:28.988Z,6.50
2023-08-13T21:07:56.905Z,12.10
2023-08-13T21:10:24.946Z,9.10
2023-08-13T21:12:52.698Z,10.30
2023-08-13T21:15:20.391Z,10.60
2023-08-13T21:17:48.318Z,8.30
2023-08-13T21:20:16.112Z,8.80
2023-08-13T21:22:44.046Z,8.70
2023-08-13T21:25:11.801Z,7.90
2023-08-13T21:27:39.677Z,7.40
2023-08-13T21:30:12.525Z,9.10
2023-08-13T21:32:41.667Z,10.00
2023-08-13T21:35:12.215Z,8.00
2023-08-13T21:37:40.892Z,9.30
2023-08-13T21:40:09.407Z,6.70
2023-08-13T21:42:37.159Z,6.00
2023-08-13T21:45:05.177Z,5.90
2023-08-13T21:47:32.890Z,5.80
2023-08-13T21:50:00.575Z,6.00
2023-08-13T21:52:28.392Z,6.80
2023-08-13T21:54:56.164Z,6.00
2023-08-13T21:57:23.945Z,6.60
2023-08-13T21:59:51.967Z,6.60
2023-08-13T22:02:20.242Z,7.30
2023-08-13T22:04:49.510Z,7.60
2023-08-13T22:07:18.040Z,7.20
2023-08-13T22:09:45.932Z,5.90
2023-08-13T22:12:13.622Z,6.50
2023-08-13T22:14:41.386Z,6.60
2023-08-13T22:17:09.173Z,7.30
2023-08-13T22:19:51.569Z,5.80
2023-08-13T22:22:21.168Z,6.20
2023-08-13T22:24:48.953Z,10.10
2023-08-13T22:27:16.860Z,6.90
2023-08-13T22:29:45.240Z,6.90
2023-08-13T22:32:13.051Z,7.70
2023-08-13T22:34:42.603Z,8.30
2023-08-13T22:37:11.470Z,5.70
2023-08-13T22:39:39.418Z,6.80
2023-08-13T22:42:07.739Z,5.20
2023-08-13T22:44:35.501Z,9.90
2023-08-13T22:47:03.672Z,7.20
2023-08-13T22:49:36.695Z,6.60
2023-08-13T22:52:09.720Z,7.10
2023-08-13T22:54:39.288Z,6.60
2023-08-13T22:57:09.211Z,6.50
2023-08-13T22:59:38.291Z,5.80
2023-08-13T23:02:07.659Z,5.30
2023-08-13T23:04:35.442Z,5.70
2023-08-13T23:07:03.232Z,6.80
2023-08-13T23:09:31.541Z,5.70
2023-08-13T23:11:59.353Z,6.00
2023-08-13T23:14:27.169Z,7.60
2023-08-13T23:16:55.628Z,9.30
2023-08-13T23:19:24.182Z,7.20
2023-08-13T23:21:52.131Z,7.70
2023-08-13T23:24:20.533Z,5.70
2023-08-13T23:26:48.474Z,6.60
2023-08-13T23:29:16.417Z,6.00
2023-08-13T23:31:44.301Z,6.70
2023-08-13T23:34:12.182Z,6.50
2023-08-13T23:36:40.386Z,5.60
2023-08-13T23:39:08.618Z,8.20
2023-08-13T23:41:38.421Z,5.80
2023-08-13T23:44:07.016Z,6.30
2023-08-13T23:46:34.870Z,6.80
2023-08-13T23:49:03.001Z,6.50
2023-08-13T23:51:30.800Z,6.20
2023-08-13T23:53:58.581Z,6.20
2023-08-13T23:56:26.463Z,7.00
2023-08-13T23:58:54.185Z,5.50
